Homestead ARB Airport Homestead US
ICAO: KHST
IATA: HST
Category: Medium
Scheduled Services: No

Elevation: 5 ft
TransAlt. 18000 ft.

Airport Communications:
APP/DEP:123.8
ATIS:132.275
CLNC DEL:27.58
GCA:123.8
GND:121.75
93FS:138.025
PMSV METRO:31.865
COMD POST:25.21
PTD:37.22
TWR:133.45

KHST Zoom In..

Runways:

(A) RW 05 length 11200 ft width 300 ft
ILS 109.90 / hdg 52

(B) RW 23 length 11200 ft width 300 ft
---- / hdg 232

Location; KHST
Day. 29 / Time. 21.56 Zulu
* Altimeter: 29.98
* Temperature: 29° c. 84.2°f.
* Wind from: 090° Speed 10 kn.
Dewpoint: 24° c.
Visibility: 10 Statute Miles.
Clouds: Scattered 2200 ft.

KHST 292156Z AUTO 09010KT 10SM SCT022 29/24 A2998 RMK AO2 DZB10E20DZB21E26RAB29E39DZB39E49 SLP156 P0000 T02920243


Wind From 090°
Speed 10 kn.

 
 
jpsmedia worldairports.se 2020   terms of use